sensor_id;sensor_type;location;lat;lon;timestamp;pressure;altitude;pressure_sealevel;temperature;humidity
1401;BME280;46518;48.842;8.926;2023-01-31T00:01:53;98067.00;;;2.53;92.31
1401;BME280;46518;48.842;8.926;2023-01-31T00:04:22;98072.25;;;2.45;90.90
1401;BME280;46518;48.842;8.926;2023-01-31T00:06:50;98056.16;;;2.42;90.70
1401;BME280;46518;48.842;8.926;2023-01-31T00:09:19;98054.06;;;2.45;91.03
1401;BME280;46518;48.842;8.926;2023-01-31T00:11:48;98045.19;;;2.31;90.67
1401;BME280;46518;48.842;8.926;2023-01-31T00:14:18;98049.94;;;2.20;91.21
1401;BME280;46518;48.842;8.926;2023-01-31T00:16:47;98041.03;;;2.14;91.70
1401;BME280;46518;48.842;8.926;2023-01-31T00:19:15;98036.97;;;2.11;91.03
1401;BME280;46518;48.842;8.926;2023-01-31T00:21:43;98021.78;;;2.00;91.58
1401;BME280;46518;48.842;8.926;2023-01-31T00:24:12;98037.88;;;1.96;92.42
1401;BME280;46518;48.842;8.926;2023-01-31T00:26:41;98028.78;;;1.91;92.61
1401;BME280;46518;48.842;8.926;2023-01-31T00:29:09;98025.72;;;1.88;92.79
1401;BME280;46518;48.842;8.926;2023-01-31T00:31:39;98028.16;;;1.81;92.84
1401;BME280;46518;48.842;8.926;2023-01-31T00:34:10;98039.69;;;1.79;93.34
1401;BME280;46518;48.842;8.926;2023-01-31T00:36:41;98030.91;;;1.80;93.54
1401;BME280;46518;48.842;8.926;2023-01-31T00:39:10;98013.59;;;1.80;93.23
1401;BME280;46518;48.842;8.926;2023-01-31T00:41:38;98018.28;;;1.85;93.62
1401;BME280;46518;48.842;8.926;2023-01-31T00:44:06;98006.13;;;1.69;93.55
1401;BME280;46518;48.842;8.926;2023-01-31T00:46:38;98015.19;;;1.81;93.39
1401;BME280;46518;48.842;8.926;2023-01-31T00:49:07;98030.44;;;1.76;93.30
1401;BME280;46518;48.842;8.926;2023-01-31T00:51:35;98003.19;;;1.80;93.25
1401;BME280;46518;48.842;8.926;2023-01-31T00:54:04;98004.97;;;1.80;92.75
1401;BME280;46518;48.842;8.926;2023-01-31T00:56:32;98004.16;;;1.87;92.67
1401;BME280;46518;48.842;8.926;2023-01-31T00:59:01;98010.16;;;1.88;92.41
1401;BME280;46518;48.842;8.926;2023-01-31T01:01:30;98004.97;;;1.80;93.39
1401;BME280;46518;48.842;8.926;2023-01-31T01:04:00;98006.59;;;1.81;92.80
1401;BME280;46518;48.842;8.926;2023-01-31T01:06:32;98006.28;;;1.76;92.96
1401;BME280;46518;48.842;8.926;2023-01-31T01:09:01;98006.94;;;1.78;92.97
1401;BME280;46518;48.842;8.926;2023-01-31T01:11:32;98007.59;;;1.71;93.70
1401;BME280;46518;48.842;8.926;2023-01-31T01:14:02;98005.34;;;1.68;93.73
1401;BME280;46518;48.842;8.926;2023-01-31T01:16:32;98020.22;;;1.83;93.19
1401;BME280;46518;48.842;8.926;2023-01-31T01:19:05;98012.13;;;1.78;93.57
1401;BME280;46518;48.842;8.926;2023-01-31T01:21:33;98019.56;;;1.81;93.38
1401;BME280;46518;48.842;8.926;2023-01-31T01:24:07;98016.19;;;1.80;93.54
1401;BME280;46518;48.842;8.926;2023-01-31T01:26:38;98016.28;;;1.95;93.42
1401;BME280;46518;48.842;8.926;2023-01-31T01:29:06;98022.44;;;1.94;93.02
1401;BME280;46518;48.842;8.926;2023-01-31T01:31:36;98014.31;;;1.97;93.11
1401;BME280;46518;48.842;8.926;2023-01-31T01:34:10;98017.25;;;1.94;92.82
1401;BME280;46518;48.842;8.926;2023-01-31T01:36:39;98013.16;;;2.00;93.11
1401;BME280;46518;48.842;8.926;2023-01-31T01:39:09;98001.56;;;1.87;93.47
1401;BME280;46518;48.842;8.926;2023-01-31T01:41:41;98011.41;;;2.00;93.87
1401;BME280;46518;48.842;8.926;2023-01-31T01:44:44;98013.66;;;2.03;92.52
1401;BME280;46518;48.842;8.926;2023-01-31T01:47:17;98015.75;;;2.08;93.42
1401;BME280;46518;48.842;8.926;2023-01-31T01:49:50;98016.44;;;1.93;94.23
1401;BME280;46518;48.842;8.926;2023-01-31T01:52:22;98021.28;;;1.97;93.51
1401;BME280;46518;48.842;8.926;2023-01-31T01:54:55;98019.06;;;1.85;94.80
1401;BME280;46518;48.842;8.926;2023-01-31T01:57:31;98021.50;;;1.87;95.08
1401;BME280;46518;48.842;8.926;2023-01-31T02:00:08;98017.94;;;1.80;95.32
1401;BME280;46518;48.842;8.926;2023-01-31T02:02:41;98014.34;;;1.89;94.68
1401;BME280;46518;48.842;8.926;2023-01-31T02:05:15;98015.22;;;1.73;95.58
1401;BME280;46518;48.842;8.926;2023-01-31T02:07:46;98005.59;;;1.82;95.39
1401;BME280;46518;48.842;8.926;2023-01-31T02:10:18;98012.94;;;1.78;95.60
1401;BME280;46518;48.842;8.926;2023-01-31T02:12:47;98017.63;;;1.75;95.41
1401;BME280;46518;48.842;8.926;2023-01-31T02:15:15;98008.28;;;1.65;95.45
1401;BME280;46518;48.842;8.926;2023-01-31T02:17:44;98012.81;;;1.63;95.88
1401;BME280;46518;48.842;8.926;2023-01-31T02:20:42;98008.41;;;1.64;95.81
1401;BME280;46518;48.842;8.926;2023-01-31T02:23:32;98023.34;;;1.70;95.02
1401;BME280;46518;48.842;8.926;2023-01-31T02:26:32;98030.81;;;1.57;95.29
1401;BME280;46518;48.842;8.926;2023-01-31T02:29:31;98029.66;;;1.59;96.06
1401;BME280;46518;48.842;8.926;2023-01-31T02:32:20;98034.56;;;1.62;96.00
1401;BME280;46518;48.842;8.926;2023-01-31T02:35:07;98034.22;;;1.57;96.15
1401;BME280;46518;48.842;8.926;2023-01-31T02:37:43;98022.56;;;1.53;95.77
1401;BME280;46518;48.842;8.926;2023-01-31T02:40:20;98042.34;;;1.62;95.13
1401;BME280;46518;48.842;8.926;2023-01-31T02:42:53;98038.91;;;1.70;95.26
1401;BME280;46518;48.842;8.926;2023-01-31T02:45:34;98049.09;;;1.71;95.37
1401;BME280;46518;48.842;8.926;2023-01-31T02:48:15;98051.56;;;1.73;95.10
1401;BME280;46518;48.842;8.926;2023-01-31T02:50:57;98046.03;;;1.68;94.50
1401;BME280;46518;48.842;8.926;2023-01-31T02:53:32;98058.84;;;1.69;94.50
1401;BME280;46518;48.842;8.926;2023-01-31T02:56:05;98062.41;;;1.68;94.64
1401;BME280;46518;48.842;8.926;2023-01-31T02:58:49;98056.25;;;1.69;94.83
1401;BME280;46518;48.842;8.926;2023-01-31T03:01:23;98038.25;;;1.60;94.42
1401;BME280;46518;48.842;8.926;2023-01-31T03:03:57;98053.97;;;1.66;94.55
1401;BME280;46518;48.842;8.926;2023-01-31T03:06:55;98056.91;;;1.71;94.72
1401;BME280;46518;48.842;8.926;2023-01-31T03:09:39;98060.63;;;1.69;94.39
1401;BME280;46518;48.842;8.926;2023-01-31T03:12:17;98058.53;;;1.72;94.26
1401;BME280;46518;48.842;8.926;2023-01-31T03:14:58;98064.53;;;1.65;94.82
1401;BME280;46518;48.842;8.926;2023-01-31T03:17:37;98057.88;;;1.70;94.32
1401;BME280;46518;48.842;8.926;2023-01-31T03:20:14;98060.63;;;1.69;93.99
1401;BME280;46518;48.842;8.926;2023-01-31T03:22:47;98055.75;;;1.74;94.32
1401;BME280;46518;48.842;8.926;2023-01-31T03:25:19;98051.56;;;1.73;93.43
1401;BME280;46518;48.842;8.926;2023-01-31T03:27:55;98055.63;;;1.67;93.73
1401;BME280;46518;48.842;8.926;2023-01-31T03:30:30;98066.66;;;1.61;94.16
1401;BME280;46518;48.842;8.926;2023-01-31T03:33:07;98066.31;;;1.64;93.72
1401;BME280;46518;48.842;8.926;2023-01-31T03:35:41;98069.25;;;1.61;93.83
1401;BME280;46518;48.842;8.926;2023-01-31T03:38:16;98064.53;;;1.65;93.73
1401;BME280;46518;48.842;8.926;2023-01-31T03:40:50;98063.72;;;1.56;92.72
1401;BME280;46518;48.842;8.926;2023-01-31T03:43:25;98081.25;;;1.54;94.00
1401;BME280;46518;48.842;8.926;2023-01-31T03:46:00;98075.25;;;1.54;94.93
1401;BME280;46518;48.842;8.926;2023-01-31T03:48:36;98075.09;;;1.55;94.25
1401;BME280;46518;48.842;8.926;2023-01-31T03:51:11;98076.88;;;1.63;93.91
1401;BME280;46518;48.842;8.926;2023-01-31T03:53:45;98067.63;;;1.68;93.86
1401;BME280;46518;48.842;8.926;2023-01-31T03:56:17;98076.38;;;1.67;93.64
1401;BME280;46518;48.842;8.926;2023-01-31T03:58:49;98071.84;;;1.61;94.06
1401;BME280;46518;48.842;8.926;2023-01-31T04:01:22;98067.16;;;1.65;94.09
1401;BME280;46518;48.842;8.926;2023-01-31T04:03:54;98078.66;;;1.70;93.88
1401;BME280;46518;48.842;8.926;2023-01-31T04:06:27;98081.25;;;1.70;93.19
1401;BME280;46518;48.842;8.926;2023-01-31T04:08:55;98085.78;;;1.68;93.22
1401;BME280;46518;48.842;8.926;2023-01-31T04:11:25;98090.81;;;1.62;93.84
1401;BME280;46518;48.842;8.926;2023-01-31T04:13:53;98095.47;;;1.75;93.49
1401;BME280;46518;48.842;8.926;2023-01-31T04:16:22;98098.41;;;1.88;93.16
1401;BME280;46518;48.842;8.926;2023-01-31T04:18:50;98100.03;;;1.81;92.74
1401;BME280;46518;48.842;8.926;2023-01-31T04:21:18;98087.06;;;1.72;92.88
1401;BME280;46518;48.842;8.926;2023-01-31T04:23:48;98093.06;;;1.81;92.71
1401;BME280;46518;48.842;8.926;2023-01-31T04:26:16;98085.91;;;1.83;92.92
1401;BME280;46518;48.842;8.926;2023-01-31T04:28:44;98094.84;;;1.81;92.67
1401;BME280;46518;48.842;8.926;2023-01-31T04:31:13;98087.41;;;1.78;93.37
1401;BME280;46518;48.842;8.926;2023-01-31T04:33:41;98091.59;;;1.79;93.24
1401;BME280;46518;48.842;8.926;2023-01-31T04:36:10;98092.75;;;1.76;93.55
1401;BME280;46518;48.842;8.926;2023-01-31T04:38:38;98090.47;;;1.81;93.91
1401;BME280;46518;48.842;8.926;2023-01-31T04:41:08;98088.69;;;1.73;94.00
1401;BME280;46518;48.842;8.926;2023-01-31T04:43:36;98095.19;;;1.78;94.37
1401;BME280;46518;48.842;8.926;2023-01-31T04:46:04;98101.31;;;1.93;93.70
1401;BME280;46518;48.842;8.926;2023-01-31T04:48:33;98097.13;;;1.76;94.80
1401;BME280;46518;48.842;8.926;2023-01-31T04:51:02;98097.94;;;1.76;94.65
1401;BME280;46518;48.842;8.926;2023-01-31T04:53:31;98094.22;;;1.70;95.01
1401;BME280;46518;48.842;8.926;2023-01-31T04:55:59;98075.88;;;1.72;94.97
1401;BME280;46518;48.842;8.926;2023-01-31T04:58:30;98084.31;;;1.66;95.11
1401;BME280;46518;48.842;8.926;2023-01-31T05:00:58;98076.22;;;1.53;95.54
1401;BME280;46518;48.842;8.926;2023-01-31T05:03:26;98084.81;;;1.53;96.21
1401;BME280;46518;48.842;8.926;2023-01-31T05:05:55;98086.28;;;1.47;95.87
1401;BME280;46518;48.842;8.926;2023-01-31T05:08:23;98095.69;;;1.48;96.20
1401;BME280;46518;48.842;8.926;2023-01-31T05:10:56;98085.47;;;1.55;96.52
1401;BME280;46518;48.842;8.926;2023-01-31T05:13:26;98079.63;;;1.61;95.78
1401;BME280;46518;48.842;8.926;2023-01-31T05:15:57;98085.44;;;1.71;94.72
1401;BME280;46518;48.842;8.926;2023-01-31T05:18:25;98078.00;;;1.68;94.73
1401;BME280;46518;48.842;8.926;2023-01-31T05:20:54;98083.16;;;1.77;95.01
1401;BME280;46518;48.842;8.926;2023-01-31T05:23:22;98083.97;;;1.77;93.77
1401;BME280;46518;48.842;8.926;2023-01-31T05:25:50;98077.97;;;1.77;93.63
1401;BME280;46518;48.842;8.926;2023-01-31T05:28:19;98077.63;;;1.80;93.30
1401;BME280;46518;48.842;8.926;2023-01-31T05:30:47;98084.16;;;1.76;92.41
1401;BME280;46518;48.842;8.926;2023-01-31T05:33:17;98080.13;;;1.65;92.25
1401;BME280;46518;48.842;8.926;2023-01-31T05:35:46;98080.91;;;1.65;92.89
1401;BME280;46518;48.842;8.926;2023-01-31T05:38:15;98075.59;;;1.50;93.32
1401;BME280;46518;48.842;8.926;2023-01-31T05:40:43;98077.22;;;1.43;92.93
1401;BME280;46518;48.842;8.926;2023-01-31T05:43:11;98089.84;;;1.38;93.74
1401;BME280;46518;48.842;8.926;2023-01-31T05:45:40;98085.16;;;1.34;94.27
1401;BME280;46518;48.842;8.926;2023-01-31T05:48:08;98081.44;;;1.28;93.16
1401;BME280;46518;48.842;8.926;2023-01-31T05:50:38;98093.41;;;1.29;93.88
1401;BME280;46518;48.842;8.926;2023-01-31T05:53:09;98090.34;;;1.34;93.68
1401;BME280;46518;48.842;8.926;2023-01-31T05:55:37;98090.97;;;1.44;92.84
1401;BME280;46518;48.842;8.926;2023-01-31T05:58:05;98099.56;;;1.44;92.67
1401;BME280;46518;48.842;8.926;2023-01-31T06:00:34;98084.97;;;1.19;92.92
1401;BME280;46518;48.842;8.926;2023-01-31T06:03:02;98081.75;;;1.33;93.09
1401;BME280;46518;48.842;8.926;2023-01-31T06:05:30;98082.06;;;1.46;91.93
1401;BME280;46518;48.842;8.926;2023-01-31T06:08:01;98089.06;;;1.38;91.22
1401;BME280;46518;48.842;8.926;2023-01-31T06:10:29;98087.75;;;1.50;91.31
1401;BME280;46518;48.842;8.926;2023-01-31T06:12:57;98072.34;;;1.32;90.94
1401;BME280;46518;48.842;8.926;2023-01-31T06:15:26;98078.19;;;1.26;91.03
1401;BME280;46518;48.842;8.926;2023-01-31T06:17:54;98097.13;;;1.26;90.66
1401;BME280;46518;48.842;8.926;2023-01-31T06:20:22;98085.97;;;1.26;90.46
1401;BME280;46518;48.842;8.926;2023-01-31T06:22:50;98104.44;;;1.31;90.27
1401;BME280;46518;48.842;8.926;2023-01-31T06:25:20;98084.81;;;0.96;91.28
1401;BME280;46518;48.842;8.926;2023-01-31T06:27:48;98098.72;;;0.86;93.21
1401;BME280;46518;48.842;8.926;2023-01-31T06:30:17;98092.91;;;0.93;93.49
1401;BME280;46518;48.842;8.926;2023-01-31T06:32:45;98095.16;;;0.88;93.72
1401;BME280;46518;48.842;8.926;2023-01-31T06:35:14;98104.06;;;0.85;94.40
1401;BME280;46518;48.842;8.926;2023-01-31T06:37:42;98108.13;;;0.88;94.08
1401;BME280;46518;48.842;8.926;2023-01-31T06:40:11;98103.13;;;1.02;93.54
1401;BME280;46518;48.842;8.926;2023-01-31T06:42:40;98107.81;;;1.07;93.29
1401;BME280;46518;48.842;8.926;2023-01-31T06:45:09;98117.03;;;1.01;92.79
1401;BME280;46518;48.842;8.926;2023-01-31T06:47:38;98113.97;;;1.06;91.80
1401;BME280;46518;48.842;8.926;2023-01-31T06:50:06;98110.72;;;1.12;91.76
1401;BME280;46518;48.842;8.926;2023-01-31T06:52:35;98103.94;;;1.11;91.79
1401;BME280;46518;48.842;8.926;2023-01-31T06:55:04;98108.00;;;1.05;91.84
1401;BME280;46518;48.842;8.926;2023-01-31T06:57:32;98109.44;;;1.08;92.89
1401;BME280;46518;48.842;8.926;2023-01-31T07:00:03;98099.38;;;0.97;91.83
1401;BME280;46518;48.842;8.926;2023-01-31T07:02:31;98103.75;;;1.04;92.03
1401;BME280;46518;48.842;8.926;2023-01-31T07:04:59;98095.78;;;0.90;93.25
1401;BME280;46518;48.842;8.926;2023-01-31T07:07:28;98101.16;;;0.96;92.00
1401;BME280;46518;48.842;8.926;2023-01-31T07:09:56;98112.69;;;1.10;91.61
1401;BME280;46518;48.842;8.926;2023-01-31T07:12:25;98114.44;;;0.85;92.13
1401;BME280;46518;48.842;8.926;2023-01-31T07:14:53;98117.03;;;0.85;92.43
1401;BME280;46518;48.842;8.926;2023-01-31T07:17:23;98113.44;;;0.86;92.86
1401;BME280;46518;48.842;8.926;2023-01-31T07:19:52;98098.75;;;1.03;91.92
1401;BME280;46518;48.842;8.926;2023-01-31T07:22:20;98106.81;;;1.00;91.78
1401;BME280;46518;48.842;8.926;2023-01-31T07:24:48;98106.34;;;1.04;91.42
1401;BME280;46518;48.842;8.926;2023-01-31T07:27:18;98111.69;;;0.95;91.51
1401;BME280;46518;48.842;8.926;2023-01-31T07:29:46;98125.16;;;1.06;91.79
1401;BME280;46518;48.842;8.926;2023-01-31T07:32:14;98110.59;;;1.14;90.88
1401;BME280;46518;48.842;8.926;2023-01-31T07:34:44;98122.28;;;1.18;91.36
1401;BME280;46518;48.842;8.926;2023-01-31T07:37:12;98109.94;;;1.12;90.81
1401;BME280;46518;48.842;8.926;2023-01-31T07:39:40;98118.50;;;1.12;90.57
1401;BME280;46518;48.842;8.926;2023-01-31T07:42:09;98123.38;;;1.07;91.75
1401;BME280;46518;48.842;8.926;2023-01-31T07:44:37;98119.97;;;1.15;90.59
1401;BME280;46518;48.842;8.926;2023-01-31T07:47:05;98124.84;;;1.26;91.62
1401;BME280;46518;48.842;8.926;2023-01-31T07:49:34;98115.41;;;0.92;91.07
1401;BME280;46518;48.842;8.926;2023-01-31T07:52:03;98115.13;;;1.12;90.98
1401;BME280;46518;48.842;8.926;2023-01-31T07:54:34;98112.38;;;1.13;90.75
1401;BME280;46518;48.842;8.926;2023-01-31T07:57:02;98122.09;;;1.11;91.60
1401;BME280;46518;48.842;8.926;2023-01-31T07:59:30;98134.28;;;1.35;91.06
1401;BME280;46518;48.842;8.926;2023-01-31T08:01:59;98119.66;;;1.26;90.00
1401;BME280;46518;48.842;8.926;2023-01-31T08:04:44;98134.38;;;1.01;91.25
1401;BME280;46518;48.842;8.926;2023-01-31T08:07:14;98154.50;;;1.15;91.84
1401;BME280;46518;48.842;8.926;2023-01-31T08:09:42;98134.75;;;1.31;91.33
1401;BME280;46518;48.842;8.926;2023-01-31T08:12:13;98148.19;;;1.26;90.62
1401;BME280;46518;48.842;8.926;2023-01-31T08:14:41;98147.53;;;1.32;91.24
1401;BME280;46518;48.842;8.926;2023-01-31T08:17:09;98144.00;;;1.58;90.67
1401;BME280;46518;48.842;8.926;2023-01-31T08:19:38;98146.75;;;1.64;90.61
1401;BME280;46518;48.842;8.926;2023-01-31T08:22:06;98147.06;;;1.61;89.06
1401;BME280;46518;48.842;8.926;2023-01-31T08:24:36;98143.66;;;1.93;88.47
1401;BME280;46518;48.842;8.926;2023-01-31T08:27:04;98121.91;;;1.94;87.54
1401;BME280;46518;48.842;8.926;2023-01-31T08:29:33;98131.78;;;1.99;87.58
1401;BME280;46518;48.842;8.926;2023-01-31T08:32:01;98124.34;;;1.96;86.85
1401;BME280;46518;48.842;8.926;2023-01-31T08:34:30;98121.84;;;2.19;85.94
1401;BME280;46518;48.842;8.926;2023-01-31T08:36:58;98123.81;;;2.09;85.66
1401;BME280;46518;48.842;8.926;2023-01-31T08:39:27;98119.75;;;2.23;86.25
1401;BME280;46518;48.842;8.926;2023-01-31T08:41:57;98113.97;;;2.44;85.58
1401;BME280;46518;48.842;8.926;2023-01-31T08:44:25;98115.06;;;2.49;85.56
1401;BME280;46518;48.842;8.926;2023-01-31T08:46:54;98111.63;;;2.57;86.20
1401;BME280;46518;48.842;8.926;2023-01-31T08:49:22;98110.19;;;2.54;85.72
1401;BME280;46518;48.842;8.926;2023-01-31T08:51:50;98110.03;;;2.56;85.00
1401;BME280;46518;48.842;8.926;2023-01-31T08:54:19;98117.97;;;2.63;85.87
1401;BME280;46518;48.842;8.926;2023-01-31T08:56:47;98125.03;;;2.77;83.89
1401;BME280;46518;48.842;8.926;2023-01-31T08:59:17;98125.28;;;2.59;85.08
1401;BME280;46518;48.842;8.926;2023-01-31T09:01:45;98115.47;;;2.69;84.43
1401;BME280;46518;48.842;8.926;2023-01-31T09:04:13;98126.72;;;2.62;84.23
1401;BME280;46518;48.842;8.926;2023-01-31T09:06:42;98118.81;;;2.55;85.48
1401;BME280;46518;48.842;8.926;2023-01-31T09:09:10;98107.44;;;2.56;85.99
1401;BME280;46518;48.842;8.926;2023-01-31T09:11:38;98118.88;;;2.78;84.91
1401;BME280;46518;48.842;8.926;2023-01-31T09:14:07;98119.31;;;2.81;84.21
1401;BME280;46518;48.842;8.926;2023-01-31T09:16:36;98116.06;;;2.79;84.65
1401;BME280;46518;48.842;8.926;2023-01-31T09:19:08;98116.53;;;2.60;85.10
1401;BME280;46518;48.842;8.926;2023-01-31T09:21:36;98113.88;;;2.68;85.09
1401;BME280;46518;48.842;8.926;2023-01-31T09:24:05;98110.28;;;2.69;85.36
1401;BME280;46518;48.842;8.926;2023-01-31T09:26:33;98096.31;;;2.70;85.03
1401;BME280;46518;48.842;8.926;2023-01-31T09:29:02;98093.44;;;2.88;83.57
1401;BME280;46518;48.842;8.926;2023-01-31T09:31:30;98098.09;;;3.01;83.53
1401;BME280;46518;48.842;8.926;2023-01-31T09:34:00;98108.34;;;2.94;84.22
1401;BME280;46518;48.842;8.926;2023-01-31T09:36:29;98104.97;;;3.17;83.57
1401;BME280;46518;48.842;8.926;2023-01-31T09:38:57;98098.03;;;3.09;83.82
1401;BME280;46518;48.842;8.926;2023-01-31T09:41:29;98093.69;;;3.01;83.32
1401;BME280;46518;48.842;8.926;2023-01-31T09:44:02;98091.72;;;3.03;83.37
1401;BME280;46518;48.842;8.926;2023-01-31T09:46:35;98088.91;;;3.13;83.40
1401;BME280;46518;48.842;8.926;2023-01-31T09:49:09;98081.56;;;3.17;82.65
1401;BME280;46518;48.842;8.926;2023-01-31T09:51:42;98088.44;;;3.33;82.42
1401;BME280;46518;48.842;8.926;2023-01-31T09:54:18;98102.09;;;3.35;81.42
1401;BME280;46518;48.842;8.926;2023-01-31T09:56:57;98104.22;;;3.31;81.76
1401;BME280;46518;48.842;8.926;2023-01-31T09:59:34;98111.63;;;3.42;81.35
1401;BME280;46518;48.842;8.926;2023-01-31T10:02:18;98109.94;;;3.27;82.22
1401;BME280;46518;48.842;8.926;2023-01-31T10:05:02;98110.50;;;3.37;81.87
1401;BME280;46518;48.842;8.926;2023-01-31T10:07:35;98103.69;;;3.36;81.62
1401;BME280;46518;48.842;8.926;2023-01-31T10:10:14;98111.09;;;3.47;81.95
1401;BME280;46518;48.842;8.926;2023-01-31T10:12:50;98116.75;;;3.51;81.04
1401;BME280;46518;48.842;8.926;2023-01-31T10:15:28;98116.81;;;3.42;80.67
1401;BME280;46518;48.842;8.926;2023-01-31T10:18:01;98117.28;;;3.46;80.99
1401;BME280;46518;48.842;8.926;2023-01-31T10:20:36;98118.84;;;3.55;80.96
1401;BME280;46518;48.842;8.926;2023-01-31T10:23:10;98118.25;;;3.68;82.16
1401;BME280;46518;48.842;8.926;2023-01-31T10:25:46;98123.00;;;3.79;81.84
1401;BME280;46518;48.842;8.926;2023-01-31T10:28:19;98106.50;;;3.72;80.56
1401;BME280;46518;48.842;8.926;2023-01-31T10:30:55;98111.31;;;3.60;81.58
1401;BME280;46518;48.842;8.926;2023-01-31T10:33:32;98099.97;;;3.53;80.20
1401;BME280;46518;48.842;8.926;2023-01-31T10:36:10;98107.66;;;3.70;81.91
1401;BME280;46518;48.842;8.926;2023-01-31T10:38:53;98110.84;;;3.95;81.50
1401;BME280;46518;48.842;8.926;2023-01-31T10:41:33;98107.75;;;3.91;80.67
1401;BME280;46518;48.842;8.926;2023-01-31T10:44:14;98106.06;;;3.83;80.02
1401;BME280;46518;48.842;8.926;2023-01-31T10:46:46;98097.69;;;3.73;79.51
1401;BME280;46518;48.842;8.926;2023-01-31T10:49:23;98101.63;;;3.69;77.95
1401;BME280;46518;48.842;8.926;2023-01-31T10:52:17;98105.63;;;3.57;78.67
1401;BME280;46518;48.842;8.926;2023-01-31T10:54:55;98089.88;;;3.73;79.27
1401;BME280;46518;48.842;8.926;2023-01-31T10:57:26;98093.75;;;3.77;79.26
1401;BME280;46518;48.842;8.926;2023-01-31T10:59:55;98109.72;;;3.74;77.36
1401;BME280;46518;48.842;8.926;2023-01-31T11:02:25;98108.06;;;3.58;78.87
1401;BME280;46518;48.842;8.926;2023-01-31T11:04:54;98092.84;;;3.70;78.88
1401;BME280;46518;48.842;8.926;2023-01-31T11:07:27;98101.06;;;3.59;77.66
1401;BME280;46518;48.842;8.926;2023-01-31T11:09:58;98097.44;;;3.83;77.07
1401;BME280;46518;48.842;8.926;2023-01-31T11:12:40;98093.81;;;3.69;77.95
1401;BME280;46518;48.842;8.926;2023-01-31T11:15:15;98079.81;;;3.70;78.49
1401;BME280;46518;48.842;8.926;2023-01-31T11:17:45;98062.31;;;3.79;77.51
1401;BME280;46518;48.842;8.926;2023-01-31T11:20:20;98051.91;;;3.79;77.57
1401;BME280;46518;48.842;8.926;2023-01-31T11:22:52;98048.84;;;3.75;76.75
1401;BME280;46518;48.842;8.926;2023-01-31T11:25:22;98013.19;;;3.61;78.91
1401;BME280;46518;48.842;8.926;2023-01-31T11:27:53;98024.69;;;3.81;78.42
1401;BME280;46518;48.842;8.926;2023-01-31T11:30:25;98032.16;;;3.84;76.38
1401;BME280;46518;48.842;8.926;2023-01-31T11:32:55;98028.41;;;3.72;75.66
1401;BME280;46518;48.842;8.926;2023-01-31T11:35:26;98026.59;;;3.73;75.62
1401;BME280;46518;48.842;8.926;2023-01-31T11:37:58;98006.03;;;3.78;75.58
1401;BME280;46518;48.842;8.926;2023-01-31T11:40:29;98019.31;;;3.68;76.41
1401;BME280;46518;48.842;8.926;2023-01-31T11:42:59;98029.75;;;3.83;77.22
1401;BME280;46518;48.842;8.926;2023-01-31T11:45:29;98026.88;;;3.78;75.27
1401;BME280;46518;48.842;8.926;2023-01-31T11:48:05;98031.00;;;3.87;75.05
1401;BME280;46518;48.842;8.926;2023-01-31T11:50:36;98039.25;;;3.91;74.97
1401;BME280;46518;48.842;8.926;2023-01-31T11:53:16;98036.00;;;4.03;74.49
1401;BME280;46518;48.842;8.926;2023-01-31T11:55:47;98036.28;;;3.94;74.53
1401;BME280;46518;48.842;8.926;2023-01-31T11:58:18;98037.72;;;3.96;75.53
1401;BME280;46518;48.842;8.926;2023-01-31T12:00:53;98036.56;;;3.99;74.46
1401;BME280;46518;48.842;8.926;2023-01-31T12:03:22;98025.22;;;3.92;73.63
1401;BME280;46518;48.842;8.926;2023-01-31T12:05:59;98030.63;;;4.05;74.67
1401;BME280;46518;48.842;8.926;2023-01-31T12:08:34;98009.34;;;4.01;75.01
1401;BME280;46518;48.842;8.926;2023-01-31T12:11:04;98013.28;;;4.12;74.12
1401;BME280;46518;48.842;8.926;2023-01-31T12:13:45;98007.44;;;4.10;72.99
1401;BME280;46518;48.842;8.926;2023-01-31T12:16:16;97997.84;;;3.96;74.42
1401;BME280;46518;48.842;8.926;2023-01-31T12:18:56;97982.75;;;3.76;74.63
1401;BME280;46518;48.842;8.926;2023-01-31T12:21:37;97979.09;;;3.85;75.12
1401;BME280;46518;48.842;8.926;2023-01-31T12:24:19;97964.66;;;3.68;74.44
1401;BME280;46518;48.842;8.926;2023-01-31T12:26:53;97967.25;;;3.68;75.04
1401;BME280;46518;48.842;8.926;2023-01-31T12:29:43;97968.69;;;3.71;74.57
1401;BME280;46518;48.842;8.926;2023-01-31T12:32:31;97958.16;;;3.64;76.19
1401;BME280;46518;48.842;8.926;2023-01-31T12:35:29;97973.25;;;3.83;74.92
1401;BME280;46518;48.842;8.926;2023-01-31T12:38:08;97952.63;;;3.67;73.75
1401;BME280;46518;48.842;8.926;2023-01-31T12:40:48;97971.00;;;3.80;74.46
1401;BME280;46518;48.842;8.926;2023-01-31T12:43:39;97957.63;;;3.83;74.07
1401;BME280;46518;48.842;8.926;2023-01-31T12:46:13;97963.38;;;3.94;74.15
1401;BME280;46518;48.842;8.926;2023-01-31T12:49:17;97958.09;;;3.72;74.29
1401;BME280;46518;48.842;8.926;2023-01-31T12:51:55;97958.09;;;3.57;74.59
1401;BME280;46518;48.842;8.926;2023-01-31T12:54:43;97949.47;;;3.57;75.71
1401;BME280;46518;48.842;8.926;2023-01-31T12:57:32;97942.91;;;3.61;74.97
1401;BME280;46518;48.842;8.926;2023-01-31T13:00:20;97943.66;;;3.55;75.11
1401;BME280;46518;48.842;8.926;2023-01-31T13:03:04;97926.50;;;3.60;74.96
1401;BME280;46518;48.842;8.926;2023-01-31T13:05:39;97929.16;;;3.82;74.93
1401;BME280;46518;48.842;8.926;2023-01-31T13:08:15;97932.75;;;3.96;74.43
1401;BME280;46518;48.842;8.926;2023-01-31T13:10:45;97928.34;;;3.96;75.68
1401;BME280;46518;48.842;8.926;2023-01-31T13:13:23;97918.13;;;3.95;74.39
1401;BME280;46518;48.842;8.926;2023-01-31T13:15:54;97922.59;;;3.86;74.73
1401;BME280;46518;48.842;8.926;2023-01-31T13:18:26;97917.50;;;3.78;73.60
1401;BME280;46518;48.842;8.926;2023-01-31T13:20:58;97904.66;;;3.76;72.92
1401;BME280;46518;48.842;8.926;2023-01-31T13:23:31;97895.50;;;3.80;73.56
1401;BME280;46518;48.842;8.926;2023-01-31T13:26:06;97889.78;;;3.70;73.04
1401;BME280;46518;48.842;8.926;2023-01-31T13:28:40;97891.84;;;3.75;73.42
1401;BME280;46518;48.842;8.926;2023-01-31T13:31:14;97906.72;;;3.81;72.05
1401;BME280;46518;48.842;8.926;2023-01-31T13:33:48;97912.94;;;3.65;72.31
1401;BME280;46518;48.842;8.926;2023-01-31T13:36:23;97907.28;;;3.61;73.02
1401;BME280;46518;48.842;8.926;2023-01-31T13:38:53;97910.75;;;3.83;72.97
1401;BME280;46518;48.842;8.926;2023-01-31T13:41:28;97907.53;;;3.81;72.16
1401;BME280;46518;48.842;8.926;2023-01-31T13:44:00;97897.03;;;3.89;72.87
1401;BME280;46518;48.842;8.926;2023-01-31T13:46:32;97896.19;;;3.89;72.74
1401;BME280;46518;48.842;8.926;2023-01-31T13:49:05;97895.75;;;3.85;73.23
1401;BME280;46518;48.842;8.926;2023-01-31T13:51:38;97904.00;;;3.89;72.78